Time;durP1;ratioP1;P1;durP2;ratioP2;P2;SDS_P1;SDS_P2;PMS_P1;PMS_P2;Temp;Humidity;BMP_temperature;BMP_pressure;BME280_temperature;BME280_humidity;BME280_pressure;Samples;Min_cycle;Max_cycle;Signal;HPM_P1;HPM_P2
2023/07/25 00:00:49;;;;;;;4.10;1.80;;;;;;;;;;10605849;27;20408;-77
2023/07/25 00:05:53;;;;;;;3.63;1.90;;;;;;;;;;10599717;27;20381;-76
2023/07/25 00:10:56;;;;;;;3.55;1.30;;;;;;;;;;10624976;27;20059;-76
2023/07/25 00:15:59;;;;;;;4.43;2.45;;;;;;;;;;10614446;27;20051;-75
2023/07/25 00:21:03;;;;;;;5.00;2.15;;;;;;;;;;10628572;27;20035;-76
2023/07/25 00:26:07;;;;;;;3.38;1.65;;;;;;;;;;10616741;27;20055;-77
2023/07/25 00:31:11;;;;;;;5.00;2.47;;;;;;;;;;10619993;27;20031;-76
2023/07/25 00:36:17;;;;;;;6.93;1.85;;;;;;;;;;10607065;27;20043;-77
2023/07/25 00:41:20;;;;;;;3.78;1.75;;;;;;;;;;10611441;27;20039;-76
2023/07/25 00:46:23;;;;;;;5.18;2.50;;;;;;;;;;10611493;27;20096;-76
2023/07/25 00:51:26;;;;;;;;;;;;;;;;;;10624348;27;20095;-75
2023/07/25 00:56:30;;;;;;;2.75;1.00;;;;;;;;;;10614630;27;19919;-76
2023/07/25 01:01:33;;;;;;;3.95;1.95;;;;;;;;;;10612697;27;20107;-75
2023/07/25 01:06:37;;;;;;;4.30;2.10;;;;;;;;;;10610281;27;20035;-76
2023/07/25 01:11:42;;;;;;;6.25;2.10;;;;;;;;;;10612258;27;20440;-75
2023/07/25 01:16:44;;;;;;;3.13;1.83;;;;;;;;;;10623359;27;20039;-75
2023/07/25 01:21:47;;;;;;;5.95;2.45;;;;;;;;;;10609115;27;20047;-76
2023/07/25 01:26:51;;;;;;;5.20;2.60;;;;;;;;;;10611826;27;20046;-76
2023/07/25 01:31:54;;;;;;;6.40;2.50;;;;;;;;;;10604335;27;20184;-75
2023/07/25 01:36:57;;;;;;;3.37;1.57;;;;;;;;;;10607735;27;20039;-75
2023/07/25 01:42:01;;;;;;;4.90;2.47;;;;;;;;;;10613003;27;20039;-75
2023/07/25 01:47:03;;;;;;;5.47;2.20;;;;;;;;;;10607631;27;20071;-75
2023/07/25 01:52:06;;;;;;;4.10;2.03;;;;;;;;;;10602573;27;20126;-75
2023/07/25 01:57:11;;;;;;;6.30;2.45;;;;;;;;;;10612977;27;20047;-75
2023/07/25 02:02:13;;;;;;;2.90;1.80;;;;;;;;;;10607401;27;20442;-75
2023/07/25 02:07:16;;;;;;;4.67;2.43;;;;;;;;;;10616075;27;20506;-76
2023/07/25 02:12:20;;;;;;;3.60;2.03;;;;;;;;;;10598692;27;20462;-76
2023/07/25 02:17:23;;;;;;;4.80;2.00;;;;;;;;;;10611578;27;20059;-75
2023/07/25 02:22:25;;;;;;;6.23;2.20;;;;;;;;;;10611930;27;20096;-75
2023/07/25 02:27:29;;;;;;;4.37;2.37;;;;;;;;;;10604554;27;20053;-75
2023/07/25 02:32:32;;;;;;;4.75;2.40;;;;;;;;;;10606067;27;20035;-75
2023/07/25 02:37:34;;;;;;;4.83;2.47;;;;;;;;;;10605488;27;20167;-75
2023/07/25 02:42:38;;;;;;;5.80;2.40;;;;;;;;;;10614150;27;20403;-83
2023/07/25 02:47:41;;;;;;;7.15;2.50;;;;;;;;;;10617203;27;20488;-82
2023/07/25 02:52:44;;;;;;;6.95;2.42;;;;;;;;;;10632092;27;20046;-82
2023/07/25 02:57:48;;;;;;;5.80;2.43;;;;;;;;;;10624604;27;20037;-81
2023/07/25 03:02:51;;;;;;;5.07;2.42;;;;;;;;;;10614868;27;20039;-81
2023/07/25 03:07:53;;;;;;;4.60;2.28;;;;;;;;;;10612491;27;20050;-81
2023/07/25 03:12:57;;;;;;;6.13;2.20;;;;;;;;;;10632782;27;20038;-79
2023/07/25 03:18:00;;;;;;;6.40;2.78;;;;;;;;;;10647319;27;20042;-81
2023/07/25 03:23:03;;;;;;;6.20;2.33;;;;;;;;;;10652243;27;20039;-82
2023/07/25 03:28:07;;;;;;;4.28;2.13;;;;;;;;;;10625747;27;20035;-82
2023/07/25 03:33:10;;;;;;;3.78;2.00;;;;;;;;;;10621566;27;20074;-82
2023/07/25 03:38:13;;;;;;;5.00;2.63;;;;;;;;;;10632310;27;20039;-81
2023/07/25 03:43:18;;;;;;;4.90;1.98;;;;;;;;;;10625916;27;20039;-82
2023/07/25 03:48:21;;;;;;;5.82;2.40;;;;;;;;;;10598389;27;20130;-82
2023/07/25 03:53:24;;;;;;;4.60;1.75;;;;;;;;;;10623919;27;20074;-81
2023/07/25 03:58:29;;;;;;;2.97;1.70;;;;;;;;;;10608331;27;20067;-80
2023/07/25 04:03:31;;;;;;;6.30;2.30;;;;;;;;;;10605108;27;20139;-80
2023/07/25 04:08:34;;;;;;;5.10;2.28;;;;;;;;;;10611843;27;20047;-81
2023/07/25 04:13:38;;;;;;;2.90;1.70;;;;;;;;;;10602732;27;20055;-80
2023/07/25 04:18:41;;;;;;;4.63;2.35;;;;;;;;;;10625405;27;20044;-85
2023/07/25 04:23:45;;;;;;;4.72;2.17;;;;;;;;;;10597176;27;20511;-75
2023/07/25 04:28:49;;;;;;;3.97;2.10;;;;;;;;;;10620719;27;20098;-76
2023/07/25 04:33:52;;;;;;;2.05;1.13;;;;;;;;;;10622951;27;20447;-74
2023/07/25 04:38:56;;;;;;;4.13;2.42;;;;;;;;;;10621129;27;20135;-74
2023/07/25 04:44:00;;;;;;;4.80;2.10;;;;;;;;;;10624602;27;20039;-74
2023/07/25 04:49:05;;;;;;;3.47;1.20;;;;;;;;;;10613289;27;20035;-76
2023/07/25 04:54:08;;;;;;;2.53;1.27;;;;;;;;;;10620003;27;20039;-76
2023/07/25 04:59:13;;;;;;;2.63;1.38;;;;;;;;;;10614057;27;20046;-76
2023/07/25 05:04:15;;;;;;;3.80;1.73;;;;;;;;;;10612553;27;20066;-76
2023/07/25 05:09:19;;;;;;;4.93;2.17;;;;;;;;;;10610412;27;20105;-74
2023/07/25 05:14:24;;;;;;;4.75;2.28;;;;;;;;;;10594599;27;20038;-75
2023/07/25 05:19:27;;;;;;;3.88;1.42;;;;;;;;;;10622036;27;20039;-75
2023/07/25 05:24:30;;;;;;;4.68;1.90;;;;;;;;;;10626216;27;20043;-74
2023/07/25 05:29:34;;;;;;;4.07;2.10;;;;;;;;;;10611111;27;20445;-75
2023/07/25 05:34:37;;;;;;;4.13;1.75;;;;;;;;;;10618442;27;20145;-75
2023/07/25 05:39:39;;;;;;;3.43;1.90;;;;;;;;;;10613515;27;20479;-75
2023/07/25 05:44:44;;;;;;;5.00;2.40;;;;;;;;;;10618681;27;20069;-76
2023/07/25 05:49:47;;;;;;;3.85;2.10;;;;;;;;;;10620538;27;20047;-76
2023/07/25 05:54:51;;;;;;;3.75;1.83;;;;;;;;;;10622953;27;20099;-77
2023/07/25 05:59:53;;;;;;;;;;;;;;;;;;10620468;27;20073;-77
2023/07/25 06:04:57;;;;;;;5.93;2.22;;;;;;;;;;10616465;27;19993;-76
2023/07/25 06:10:00;;;;;;;5.70;2.45;;;;;;;;;;10628468;27;20560;-76
2023/07/25 06:15:04;;;;;;;5.13;1.90;;;;;;;;;;10631112;27;20057;-77
2023/07/25 06:20:10;;;;;;;3.65;1.67;;;;;;;;;;10631071;27;20384;-77
2023/07/25 06:25:15;;;;;;;7.05;2.45;;;;;;;;;;10628072;27;20400;-76
2023/07/25 06:30:18;;;;;;;4.22;2.35;;;;;;;;;;10630393;27;20111;-76
2023/07/25 06:35:22;;;;;;;4.77;2.60;;;;;;;;;;10627746;27;20037;-75
2023/07/25 06:40:25;;;;;;;3.30;1.10;;;;;;;;;;10627791;27;20339;-76
2023/07/25 06:45:28;;;;;;;5.07;1.70;;;;;;;;;;10633278;27;20041;-77
2023/07/25 06:50:33;;;;;;;6.17;2.20;;;;;;;;;;10624920;27;20035;-76
2023/07/25 06:55:37;;;;;;;7.35;2.35;;;;;;;;;;10625508;27;20122;-77
2023/07/25 07:00:40;;;;;;;5.00;2.25;;;;;;;;;;10619726;27;20039;-76
2023/07/25 07:05:53;;;;;;;6.38;2.47;;;;;;;;;;10632108;27;20183;-77
2023/07/25 07:10:56;;;;;;;7.47;2.67;;;;;;;;;;10631827;27;20051;-78
2023/07/25 07:15:59;;;;;;;4.05;2.00;;;;;;;;;;10624766;27;20043;-75
2023/07/25 07:21:06;;;;;;;4.50;2.22;;;;;;;;;;10623841;27;20075;-76
2023/07/25 07:26:09;;;;;;;4.20;2.00;;;;;;;;;;10614094;27;20194;-77
2023/07/25 07:31:12;;;;;;;3.40;1.73;;;;;;;;;;10612474;27;20188;-77
2023/07/25 07:36:16;;;;;;;4.68;2.20;;;;;;;;;;10604021;27;20040;-77
2023/07/25 07:41:20;;;;;;;3.05;1.55;;;;;;;;;;10601409;27;20098;-75
2023/07/25 07:46:23;;;;;;;2.17;1.30;;;;;;;;;;10606399;27;20510;-76
2023/07/25 07:51:27;;;;;;;6.07;1.73;;;;;;;;;;10612780;27;20046;-77
2023/07/25 07:56:30;;;;;;;4.38;1.95;;;;;;;;;;10604725;27;20078;-76
2023/07/25 08:01:34;;;;;;;5.60;2.38;;;;;;;;;;10612292;27;20044;-75
2023/07/25 08:06:41;;;;;;;1.98;1.30;;;;;;;;;;10604778;27;20122;-76
2023/07/25 08:11:45;;;;;;;2.55;1.08;;;;;;;;;;10611869;27;20035;-77
2023/07/25 08:16:48;;;;;;;3.40;1.73;;;;;;;;;;10603674;27;20349;-77
2023/07/25 08:21:54;;;;;;;2.17;1.20;;;;;;;;;;10595234;27;20043;-77
2023/07/25 08:26:59;;;;;;;2.42;1.42;;;;;;;;;;10615284;27;20173;-76
2023/07/25 08:32:02;;;;;;;3.45;1.77;;;;;;;;;;10617745;27;20092;-77
2023/07/25 08:37:07;;;;;;;3.00;1.70;;;;;;;;;;10615993;27;20046;-77
2023/07/25 08:42:11;;;;;;;5.03;1.85;;;;;;;;;;10616130;27;20046;-75
2023/07/25 08:47:22;;;;;;;3.15;1.88;;;;;;;;;;10622721;27;20047;-77
2023/07/25 08:52:27;;;;;;;3.13;1.67;;;;;;;;;;10613179;27;20134;-77
2023/07/25 08:57:30;;;;;;;4.85;2.10;;;;;;;;;;10631326;27;20043;-76
2023/07/25 09:02:33;;;;;;;4.63;2.37;;;;;;;;;;10611800;27;20220;-78
2023/07/25 09:07:37;;;;;;;2.70;1.27;;;;;;;;;;10620091;27;20122;-78
2023/07/25 09:12:40;;;;;;;5.22;1.80;;;;;;;;;;10601975;27;20126;-78
2023/07/25 09:17:43;;;;;;;3.78;1.65;;;;;;;;;;10608010;27;20046;-77
2023/07/25 09:22:48;;;;;;;3.30;1.80;;;;;;;;;;10601613;27;20060;-77
2023/07/25 09:27:54;;;;;;;4.75;1.70;;;;;;;;;;10612187;27;20051;-77
2023/07/25 09:32:56;;;;;;;4.50;1.60;;;;;;;;;;10619254;27;20123;-78
2023/07/25 09:38:01;;;;;;;2.65;1.50;;;;;;;;;;10607216;27;20553;-78
2023/07/25 09:43:03;;;;;;;2.40;1.25;;;;;;;;;;10609590;27;20070;-77
2023/07/25 09:48:06;;;;;;;2.30;1.20;;;;;;;;;;10618518;27;20061;-76
2023/07/25 09:53:12;;;;;;;2.92;1.38;;;;;;;;;;10607859;27;20393;-76
2023/07/25 09:58:14;;;;;;;2.97;1.83;;;;;;;;;;10606040;27;20095;-76
2023/07/25 10:03:19;;;;;;;2.45;1.55;;;;;;;;;;10609799;27;20039;-76
2023/07/25 10:08:25;;;;;;;1.88;1.20;;;;;;;;;;10615858;27;20074;-76
2023/07/25 10:13:28;;;;;;;2.25;1.20;;;;;;;;;;10612505;27;20048;-76
2023/07/25 10:18:33;;;;;;;2.92;1.70;;;;;;;;;;10607171;27;20062;-75
2023/07/25 10:23:38;;;;;;;3.10;1.75;;;;;;;;;;10620439;27;20045;-77
2023/07/25 10:28:41;;;;;;;2.45;1.20;;;;;;;;;;10619643;27;20047;-76
2023/07/25 10:33:44;;;;;;;3.05;1.58;;;;;;;;;;10611324;27;20047;-76
2023/07/25 10:38:48;;;;;;;;;;;;;;;;;;10613966;27;20118;-77
2023/07/25 10:43:56;;;;;;;1.55;1.10;;;;;;;;;;10609161;27;19968;-75
2023/07/25 10:49:02;;;;;;;2.17;1.25;;;;;;;;;;10617412;27;20071;-78
2023/07/25 10:54:06;;;;;;;4.57;1.27;;;;;;;;;;10619508;27;20902;-77
2023/07/25 10:59:10;;;;;;;2.08;1.20;;;;;;;;;;10613961;27;20051;-77
2023/07/25 11:04:31;;;;;;;2.17;1.40;;;;;;;;;;10611250;27;20089;-78
2023/07/25 11:09:38;;;;;;;1.63;0.90;;;;;;;;;;10615153;27;20039;-77
2023/07/25 11:14:43;;;;;;;2.58;1.17;;;;;;;;;;10619332;27;20037;-76
2023/07/25 11:19:47;;;;;;;3.22;1.50;;;;;;;;;;10615374;27;20032;-76
2023/07/25 11:24:49;;;;;;;2.75;1.30;;;;;;;;;;10606358;27;20106;-76
2023/07/25 11:29:54;;;;;;;2.85;1.40;;;;;;;;;;10615268;27;20046;-76
2023/07/25 11:35:00;;;;;;;2.72;0.82;;;;;;;;;;10608121;27;20048;-76
2023/07/25 11:40:16;;;;;;;2.75;1.27;;;;;;;;;;10615756;27;20047;-77
2023/07/25 11:45:22;;;;;;;7.32;1.38;;;;;;;;;;10602617;27;20047;-76
2023/07/25 11:50:25;;;;;;;4.00;1.58;;;;;;;;;;10608789;27;20050;-76
2023/07/25 11:55:35;;;;;;;3.40;1.48;;;;;;;;;;10608419;27;20121;-76
2023/07/25 12:00:42;;;;;;;1.50;1.10;;;;;;;;;;10602655;27;20058;-76
2023/07/25 12:05:51;;;;;;;6.50;2.55;;;;;;;;;;10604087;27;20072;-76
2023/07/25 12:10:55;;;;;;;4.05;1.63;;;;;;;;;;10608754;27;20042;-77
2023/07/25 12:16:01;;;;;;;3.10;1.40;;;;;;;;;;10617777;27;20046;-77
2023/07/25 12:21:05;;;;;;;2.30;1.30;;;;;;;;;;10616621;27;20570;-76
2023/07/25 12:26:08;;;;;;;3.47;1.42;;;;;;;;;;10607571;27;20122;-77
2023/07/25 12:31:12;;;;;;;1.65;0.98;;;;;;;;;;10604855;27;20035;-77
2023/07/25 12:36:15;;;;;;;1.23;1.13;;;;;;;;;;10603153;27;20488;-76
2023/07/25 12:41:18;;;;;;;2.05;1.15;;;;;;;;;;10611245;27;20039;-77
2023/07/25 12:46:22;;;;;;;3.55;1.67;;;;;;;;;;10605803;27;20547;-77
2023/07/25 12:51:28;;;;;;;7.70;2.42;;;;;;;;;;10613156;27;20057;-78
2023/07/25 12:56:32;;;;;;;3.05;1.77;;;;;;;;;;10603773;27;20031;-78
2023/07/25 13:01:36;;;;;;;2.40;1.30;;;;;;;;;;10617126;27;20526;-77
2023/07/25 13:06:39;;;;;;;4.70;1.70;;;;;;;;;;10612606;27;20054;-76
2023/07/25 13:11:42;;;;;;;2.60;1.40;;;;;;;;;;10611759;27;20045;-76
2023/07/25 13:16:45;;;;;;;;;;;;;;;;;;10616771;27;20553;-75
2023/07/25 13:21:49;;;;;;;2.45;1.30;;;;;;;;;;10618631;27;20439;-76
2023/07/25 13:26:51;;;;;;;2.58;1.33;;;;;;;;;;10613277;27;20110;-76
2023/07/25 13:31:54;;;;;;;2.13;1.42;;;;;;;;;;10606398;27;20039;-77
2023/07/25 13:36:58;;;;;;;4.07;1.20;;;;;;;;;;10621984;27;20448;-76
2023/07/25 13:42:01;;;;;;;3.17;1.52;;;;;;;;;;10610574;27;20095;-76
2023/07/25 13:47:04;;;;;;;2.85;1.38;;;;;;;;;;10615772;27;20043;-78
2023/07/25 13:52:08;;;;;;;1.75;1.33;;;;;;;;;;10611611;27;20053;-77
2023/07/25 13:57:10;;;;;;;3.08;1.60;;;;;;;;;;10606053;27;20031;-77
2023/07/25 14:02:13;;;;;;;2.13;1.38;;;;;;;;;;10607563;27;20458;-76
2023/07/25 14:07:17;;;;;;;1.67;1.15;;;;;;;;;;10608120;27;20491;-77
2023/07/25 14:12:20;;;;;;;2.63;1.42;;;;;;;;;;10611574;27;20451;-77
2023/07/25 14:17:22;;;;;;;5.38;1.95;;;;;;;;;;10608367;27;20070;-77
2023/07/25 14:22:27;;;;;;;5.10;1.75;;;;;;;;;;10596414;27;20039;-77
2023/07/25 14:27:29;;;;;;;2.53;1.60;;;;;;;;;;10611231;27;20043;-77
2023/07/25 14:32:32;;;;;;;8.32;2.00;;;;;;;;;;10612497;27;20495;-78
2023/07/25 14:37:36;;;;;;;5.82;1.50;;;;;;;;;;10607456;27;20063;-77
2023/07/25 14:42:57;;;;;;;4.80;1.42;;;;;;;;;;10625003;27;20043;-76
2023/07/25 14:47:59;;;;;;;3.65;1.65;;;;;;;;;;10617566;27;20058;-77
2023/07/25 14:53:04;;;;;;;4.15;1.60;;;;;;;;;;10614308;27;20077;-76
2023/07/25 14:58:06;;;;;;;3.60;1.50;;;;;;;;;;10613231;27;20043;-77
2023/07/25 15:03:10;;;;;;;2.30;1.35;;;;;;;;;;10612272;27;20039;-77
2023/07/25 15:08:15;;;;;;;3.53;1.60;;;;;;;;;;10609305;27;20042;-77
2023/07/25 15:13:20;;;;;;;3.70;1.63;;;;;;;;;;10604120;27;20047;-76
2023/07/25 15:18:22;;;;;;;;;;;;;;;;;;10602710;27;20112;-77
2023/07/25 15:23:27;;;;;;;13.70;6.75;;;;;;;;;;10603607;27;19934;-77
2023/07/25 15:28:30;;;;;;;4.63;1.80;;;;;;;;;;10600019;27;20035;-77
2023/07/25 15:33:33;;;;;;;2.78;1.35;;;;;;;;;;10605456;27;20570;-77
2023/07/25 15:38:37;;;;;;;3.85;1.90;;;;;;;;;;10604408;27;20442;-77
2023/07/25 15:43:40;;;;;;;6.78;1.70;;;;;;;;;;10605455;27;20217;-77
2023/07/25 15:48:43;;;;;;;;;;;;;;;;;;10591139;27;20070;-78
2023/07/25 15:53:49;;;;;;;5.57;2.30;;;;;;;;;;10605973;27;20531;-77
2023/07/25 15:58:52;;;;;;;6.05;2.17;;;;;;;;;;10603021;27;20062;-77
2023/07/25 16:03:55;;;;;;;4.22;2.10;;;;;;;;;;10597431;27;20170;-77
2023/07/25 16:08:59;;;;;;;7.68;2.97;;;;;;;;;;10607722;27;20407;-76
2023/07/25 16:14:02;;;;;;;3.70;1.60;;;;;;;;;;10605287;27;20047;-76
2023/07/25 16:19:05;;;;;;;2.45;1.27;;;;;;;;;;10603335;27;20503;-77
2023/07/25 16:24:10;;;;;;;2.08;1.20;;;;;;;;;;10611408;27;20100;-76
2023/07/25 16:29:12;;;;;;;2.33;0.98;;;;;;;;;;10608997;27;20082;-77
2023/07/25 16:34:15;;;;;;;3.60;1.35;;;;;;;;;;10589398;27;20045;-77
2023/07/25 16:39:20;;;;;;;1.88;1.20;;;;;;;;;;10613163;27;20039;-77
2023/07/25 16:44:23;;;;;;;2.45;1.40;;;;;;;;;;10615013;27;20138;-77
2023/07/25 16:49:26;;;;;;;1.90;1.10;;;;;;;;;;10616659;27;20035;-77
2023/07/25 16:54:32;;;;;;;1.85;1.30;;;;;;;;;;10616795;27;20505;-77
2023/07/25 16:59:35;;;;;;;2.50;1.45;;;;;;;;;;10618229;27;20424;-77
2023/07/25 17:04:38;;;;;;;1.43;1.00;;;;;;;;;;10609685;27;20073;-77
2023/07/25 17:09:42;;;;;;;1.35;0.82;;;;;;;;;;10615982;27;20043;-77
2023/07/25 17:14:44;;;;;;;1.38;0.80;;;;;;;;;;10617004;27;20031;-77
2023/07/25 17:19:47;;;;;;;4.20;1.67;;;;;;;;;;10616338;27;20062;-77
2023/07/25 17:24:51;;;;;;;2.37;0.87;;;;;;;;;;10607853;27;20816;-77
2023/07/25 17:29:54;;;;;;;3.95;0.98;;;;;;;;;;10613768;27;20389;-77
2023/07/25 17:34:57;;;;;;;1.60;1.10;;;;;;;;;;10609238;27;20062;-77
2023/07/25 17:40:01;;;;;;;1.43;1.17;;;;;;;;;;10605211;27;20483;-79
2023/07/25 17:45:05;;;;;;;3.88;1.25;;;;;;;;;;10606156;27;20074;-80
2023/07/25 17:50:13;;;;;;;2.92;0.85;;;;;;;;;;10604729;27;20049;-79
2023/07/25 17:55:28;;;;;;;1.98;1.17;;;;;;;;;;10588005;27;20057;-80
2023/07/25 18:00:34;;;;;;;3.08;1.08;;;;;;;;;;10609174;27;20039;-80
2023/07/25 18:21:51;;;;;;;2.60;1.27;;;;;;;;;;10598931;27;20439;-77
2023/07/25 18:26:53;;;;;;;2.92;1.48;;;;;;;;;;10555968;28;20039;-77
2023/07/25 18:31:56;;;;;;;1.75;1.05;;;;;;;;;;10558918;28;20519;-78
2023/07/25 18:37:00;;;;;;;2.60;1.43;;;;;;;;;;10557030;28;20870;-77
2023/07/25 18:42:04;;;;;;;3.80;1.08;;;;;;;;;;10554306;28;20050;-78
2023/07/25 18:47:06;;;;;;;3.45;1.70;;;;;;;;;;10559501;28;20495;-78
2023/07/25 18:52:14;;;;;;;2.42;1.10;;;;;;;;;;10558966;28;20043;-79
2023/07/25 18:57:18;;;;;;;2.33;1.20;;;;;;;;;;10562499;28;20039;-77
2023/07/25 19:02:21;;;;;;;3.58;1.35;;;;;;;;;;10555175;28;20123;-78
2023/07/25 19:07:25;;;;;;;4.00;1.15;;;;;;;;;;10546175;28;20075;-77
2023/07/25 19:12:28;;;;;;;3.30;1.40;;;;;;;;;;10559873;28;20052;-76
2023/07/25 19:17:30;;;;;;;5.40;1.73;;;;;;;;;;10559473;28;20552;-77
2023/07/25 19:22:35;;;;;;;3.10;1.33;;;;;;;;;;10526527;28;20052;-78
2023/07/25 19:27:37;;;;;;;2.80;1.33;;;;;;;;;;10530078;28;20044;-77
2023/07/25 19:32:40;;;;;;;2.40;1.35;;;;;;;;;;10527018;28;20490;-77
2023/07/25 19:37:45;;;;;;;1.57;0.83;;;;;;;;;;10526210;28;20041;-78
2023/07/25 19:42:48;;;;;;;2.85;1.10;;;;;;;;;;10532511;28;20105;-77
2023/07/25 19:47:51;;;;;;;2.72;1.40;;;;;;;;;;10533965;28;20084;-77
2023/07/25 19:52:56;;;;;;;1.20;0.98;;;;;;;;;;10545128;28;20406;-77
2023/07/25 19:57:59;;;;;;;2.28;1.25;;;;;;;;;;10526613;28;20043;-76
2023/07/25 20:03:02;;;;;;;2.03;1.07;;;;;;;;;;10525216;28;20047;-76
2023/07/25 20:08:06;;;;;;;3.40;1.73;;;;;;;;;;10534011;28;20500;-77
2023/07/25 20:13:08;;;;;;;2.70;1.40;;;;;;;;;;10526428;28;20535;-78
2023/07/25 20:18:11;;;;;;;2.08;0.80;;;;;;;;;;10527922;28;20035;-77
2023/07/25 20:23:15;;;;;;;1.27;0.93;;;;;;;;;;10534305;28;20505;-78
2023/07/25 20:28:18;;;;;;;2.85;1.38;;;;;;;;;;10527513;28;20067;-78
2023/07/25 20:33:21;;;;;;;2.97;1.20;;;;;;;;;;10524310;28;20119;-78
2023/07/25 20:38:25;;;;;;;0.83;0.60;;;;;;;;;;10528514;28;20048;-76
2023/07/25 20:43:28;;;;;;;2.83;0.73;;;;;;;;;;10530600;28;20044;-78
2023/07/25 20:48:31;;;;;;;0.70;0.40;;;;;;;;;;10528242;28;20032;-77
2023/07/25 20:53:34;;;;;;;;;;;;;;;;;;10531186;28;20130;-77
2023/07/25 20:58:38;;;;;;;1.55;0.80;;;;;;;;;;10529955;28;19927;-77
2023/07/25 21:03:41;;;;;;;1.80;0.95;;;;;;;;;;10527366;28;20055;-77
2023/07/25 21:08:44;;;;;;;0.50;0.50;;;;;;;;;;10526219;28;20478;-77
2023/07/25 21:13:48;;;;;;;1.27;0.50;;;;;;;;;;10526938;28;20039;-77
2023/07/25 21:18:52;;;;;;;5.35;1.10;;;;;;;;;;10521698;28;20555;-77
2023/07/25 21:23:55;;;;;;;1.60;0.80;;;;;;;;;;10525438;28;20058;-76
2023/07/25 21:28:59;;;;;;;0.60;0.35;;;;;;;;;;10522543;28;20032;-76
2023/07/25 21:34:02;;;;;;;1.77;1.10;;;;;;;;;;10532457;28;20070;-76
2023/07/25 21:39:05;;;;;;;1.48;0.85;;;;;;;;;;10527528;28;20094;-77
2023/07/25 21:44:11;;;;;;;5.17;1.00;;;;;;;;;;10519569;28;20047;-76
2023/07/25 21:49:16;;;;;;;1.85;0.77;;;;;;;;;;10532316;28;20038;-78
2023/07/25 21:54:19;;;;;;;1.60;0.90;;;;;;;;;;10528363;28;20047;-77
2023/07/25 21:59:23;;;;;;;3.20;0.88;;;;;;;;;;10522468;28;20490;-77
2023/07/25 22:04:26;;;;;;;1.33;0.80;;;;;;;;;;10526580;28;20261;-77
2023/07/25 22:09:28;;;;;;;5.30;1.40;;;;;;;;;;10521278;28;20127;-77
2023/07/25 22:14:32;;;;;;;1.33;1.00;;;;;;;;;;10522609;28;20036;-77
2023/07/25 22:19:35;;;;;;;1.20;0.82;;;;;;;;;;10523488;28;20056;-77
2023/07/25 22:24:38;;;;;;;2.50;1.30;;;;;;;;;;10527273;28;20660;-77
2023/07/25 22:29:45;;;;;;;3.72;1.63;;;;;;;;;;10520687;28;20043;-77
2023/07/25 22:34:47;;;;;;;1.58;1.13;;;;;;;;;;10524139;28;20490;-77
2023/07/25 22:39:50;;;;;;;3.35;1.42;;;;;;;;;;10531391;28;20518;-78
2023/07/25 22:44:54;;;;;;;3.03;1.30;;;;;;;;;;10529538;28;20040;-78
2023/07/25 22:49:57;;;;;;;2.65;1.25;;;;;;;;;;10530793;28;20044;-78
2023/07/25 22:54:59;;;;;;;2.33;1.20;;;;;;;;;;10532723;28;20135;-77
2023/07/25 23:00:04;;;;;;;2.55;1.27;;;;;;;;;;10541264;28;20040;-76
2023/07/25 23:05:07;;;;;;;2.58;1.30;;;;;;;;;;10545112;28;20070;-77
2023/07/25 23:10:10;;;;;;;2.20;1.47;;;;;;;;;;10533476;28;20039;-77
2023/07/25 23:15:15;;;;;;;2.93;1.37;;;;;;;;;;10532969;28;20442;-78
2023/07/25 23:20:18;;;;;;;4.15;1.48;;;;;;;;;;10530229;28;20561;-77
2023/07/25 23:25:20;;;;;;;3.20;1.80;;;;;;;;;;10533916;28;20514;-77
2023/07/25 23:30:24;;;;;;;2.17;0.98;;;;;;;;;;10532985;28;20068;-77
2023/07/25 23:35:27;;;;;;;3.22;1.55;;;;;;;;;;10525464;28;20090;-79
2023/07/25 23:40:30;;;;;;;2.47;1.63;;;;;;;;;;10536162;28;20097;-78
2023/07/25 23:45:34;;;;;;;4.60;2.30;;;;;;;;;;10535436;28;20141;-78
2023/07/25 23:50:37;;;;;;;3.38;1.83;;;;;;;;;;10533921;28;20047;-77
2023/07/25 23:55:39;;;;;;;3.42;1.55;;;;;;;;;;10530338;28;20063;-77
